Time;durP1;ratioP1;P1;durP2;ratioP2;P2;SDS_P1;SDS_P2;PMS_P1;PMS_P2;Temp;Humidity;BMP_temperature;BMP_pressure;BME280_temperature;BME280_humidity;BME280_pressure;Samples;Min_cycle;Max_cycle;Signal;HPM_P1;HPM_P2
2022/03/27 07:59:14;;;;;;;24.60;20.93;;;;;;;;;;5576303;22;89411;-83
2022/03/27 08:02:02;;;;;;;23.43;20.03;;;;;;;;;;4971355;28;88230;-84
2022/03/27 13:07:57;;;;;;;313.90;296.43;;;;;;;;;;5092948;23;92036;-94
2022/03/27 13:10:44;;;;;;;479.53;454.53;;;;;;;;;;4963906;23;90918;-94
2022/03/27 13:13:38;;;;;;;644.30;606.33;;;;;;;;;;4951052;22;90851;-91
2022/03/27 13:16:27;;;;;;;576.70;543.03;;;;;;;;;;4919965;28;91242;-90
2022/03/27 13:24:58;;;;;;;514.17;488.67;;;;;;;;;;5009152;23;92011;-90
2022/03/27 13:27:44;;;;;;;164.77;155.80;;;;;;;;;;4917932;28;91297;-89
2022/03/27 13:33:23;;;;;;;287.40;274.27;;;;;;;;;;5038914;22;91255;-89
2022/03/27 13:36:14;;;;;;;343.47;327.93;;;;;;;;;;4934592;22;91148;-94
2022/03/27 13:39:02;;;;;;;442.23;420.07;;;;;;;;;;5009814;22;92604;-94
2022/03/27 13:44:55;;;;;;;349.80;334.07;;;;;;;;;;4955620;28;90830;-90
2022/03/27 13:47:41;;;;;;;303.50;289.73;;;;;;;;;;4919323;28;91050;-91
2022/03/27 13:50:28;;;;;;;118.93;113.80;;;;;;;;;;4926895;28;90758;-90
2022/03/27 13:53:15;;;;;;;318.63;305.23;;;;;;;;;;4911513;28;90569;-91
2022/03/27 13:56:02;;;;;;;501.67;476.47;;;;;;;;;;4912428;28;90815;-91
2022/03/27 13:58:49;;;;;;;535.47;506.70;;;;;;;;;;4887750;28;90824;-90
2022/03/27 14:01:36;;;;;;;432.00;409.07;;;;;;;;;;4866330;28;90829;-90
2022/03/27 14:04:23;;;;;;;512.47;479.67;;;;;;;;;;4859388;28;91030;-92
2022/03/27 14:07:10;;;;;;;160.77;153.83;;;;;;;;;;4841479;29;91717;-90
2022/03/27 14:09:57;;;;;;;273.93;262.17;;;;;;;;;;4816602;29;90882;-89
2022/03/27 14:12:43;;;;;;;177.50;169.40;;;;;;;;;;4808128;29;91298;-91
2022/03/27 14:15:30;;;;;;;216.03;206.70;;;;;;;;;;4802648;29;91098;-91
2022/03/27 14:18:17;;;;;;;261.37;250.60;;;;;;;;;;4768409;29;91075;-88
2022/03/27 14:21:04;;;;;;;40.77;38.43;;;;;;;;;;4765314;29;92680;-91
2022/03/27 14:23:55;;;;;;;101.97;97.53;;;;;;;;;;4965658;22;93934;-88
2022/03/27 14:26:43;;;;;;;156.73;150.80;;;;;;;;;;4928992;28;92332;-87
2022/03/27 14:29:32;;;;;;;386.87;366.43;;;;;;;;;;4934911;28;92610;-87
2022/03/27 14:32:19;;;;;;;443.60;421.50;;;;;;;;;;4933925;28;95143;-89
2022/03/27 14:35:06;;;;;;;519.80;495.63;;;;;;;;;;4933001;28;94103;-86
2022/03/27 14:37:52;;;;;;;466.17;445.53;;;;;;;;;;4933361;28;92613;-89
2022/03/27 14:40:39;;;;;;;354.03;337.37;;;;;;;;;;4947555;28;92315;-87
2022/03/27 14:43:28;;;;;;;252.73;241.93;;;;;;;;;;4924203;28;92715;-89
2022/03/27 14:46:26;;;;;;;418.37;400.60;;;;;;;;;;5001302;22;94266;-89
2022/03/27 14:49:13;;;;;;;56.93;54.17;;;;;;;;;;4932475;28;93210;-89
2022/03/27 14:52:00;;;;;;;278.63;266.93;;;;;;;;;;4915023;28;91695;-87
2022/03/27 14:57:31;;;;;;;471.20;451.07;;;;;;;;;;5041114;22;93993;-89
2022/03/27 15:00:22;;;;;;;243.90;233.33;;;;;;;;;;4990775;23;94862;-92
2022/03/27 15:09:07;;;;;;;272.03;260.73;;;;;;;;;;4987024;22;94071;-91
2022/03/27 15:11:52;;;;;;;430.60;408.83;;;;;;;;;;5040608;23;92953;-88
2022/03/27 15:14:39;;;;;;;316.13;302.60;;;;;;;;;;5033383;23;93506;-89
2022/03/27 15:20:01;;;;;;;314.07;299.30;;;;;;;;;;5465216;22;94131;-94
2022/03/27 15:30:37;;;;;;;69.87;66.80;;;;;;;;;;5958229;22;96419;-95
2022/03/27 15:44:32;;;;;;;163.73;156.97;;;;;;;;;;4962841;22;93332;-91
2022/03/27 15:47:25;;;;;;;138.73;132.43;;;;;;;;;;4939709;23;94176;-93
2022/03/27 16:13:02;;;;;;;401.53;383.53;;;;;;;;;;5183896;22;93914;-88
